createdAt,value
2019-04-23T00:01:29.494Z,14.70
2019-04-23T00:04:01.091Z,14.60
2019-04-23T00:06:53.766Z,14.50
2019-04-23T00:08:58.112Z,14.50
2019-04-23T00:11:37.418Z,14.50
2019-04-23T00:16:29.861Z,14.40
2019-04-23T00:19:01.089Z,14.30
2019-04-23T00:21:42.466Z,14.20
2019-04-23T00:24:46.629Z,14.20
2019-04-23T00:27:10.134Z,14.20
2019-04-23T00:29:27.977Z,14.10
2019-04-23T00:32:05.271Z,14.10
2019-04-23T00:34:36.102Z,14.10
2019-04-23T00:37:01.783Z,14.00
2019-04-23T00:39:24.969Z,14.00
2019-04-23T00:42:02.419Z,13.90
2019-04-23T00:44:32.209Z,13.90
2019-04-23T00:46:54.636Z,13.80
2019-04-23T00:49:25.541Z,13.80
2019-04-23T00:52:04.554Z,13.80
2019-04-23T00:54:26.200Z,13.70
2019-04-23T00:59:29.910Z,13.60
2019-04-23T01:01:56.817Z,13.60
2019-04-23T01:04:25.521Z,13.50
2019-04-23T01:06:52.310Z,13.50
2019-04-23T01:09:22.491Z,13.40
2019-04-23T01:11:48.145Z,13.40
2019-04-23T01:14:31.551Z,13.40
2019-04-23T01:16:55.040Z,13.30
2019-04-23T01:21:45.618Z,13.20
2019-04-23T01:24:44.167Z,13.20
2019-04-23T01:30:09.591Z,13.10
2019-04-23T01:37:36.943Z,13.00
2019-04-23T01:42:42.834Z,12.90
2019-04-23T01:45:07.043Z,12.90
2019-04-23T01:47:38.943Z,12.90
2019-04-23T01:50:09.945Z,12.80
2019-04-23T01:52:39.861Z,12.80
2019-04-23T01:55:08.347Z,12.70
2019-04-23T01:57:39.074Z,12.70
2019-04-23T02:00:14.070Z,12.60
2019-04-23T02:02:40.851Z,12.60
2019-04-23T02:05:11.900Z,12.60
2019-04-23T02:07:35.928Z,12.50
2019-04-23T02:10:07.117Z,12.40
2019-04-23T02:12:37.491Z,12.40
2019-04-23T02:15:05.956Z,12.40
2019-04-23T02:17:33.684Z,12.30
2019-04-23T02:20:05.554Z,12.30
2019-04-23T02:22:52.673Z,12.20
2019-04-23T02:25:40.819Z,12.20
2019-04-23T02:28:03.187Z,12.20
2019-04-23T02:35:42.780Z,12.10
2019-04-23T02:40:37.386Z,11.90
2019-04-23T02:43:15.114Z,11.90
2019-04-23T02:45:33.981Z,11.90
2019-04-23T02:48:05.379Z,11.80
2019-04-23T02:52:56.143Z,11.80
2019-04-23T02:55:27.182Z,11.70
2019-04-23T03:00:27.773Z,11.70
2019-04-23T03:02:59.113Z,11.70
2019-04-23T03:05:20.013Z,11.70
2019-04-23T03:07:55.642Z,11.60
2019-04-23T03:10:24.696Z,11.60
2019-04-23T03:18:35.200Z,11.50
2019-04-23T03:21:10.188Z,11.50
2019-04-23T03:23:34.385Z,11.40
2019-04-23T03:26:09.283Z,11.40
2019-04-23T03:46:16.056Z,11.10
2019-04-23T03:49:07.661Z,11.10
2019-04-23T03:51:22.384Z,11.10
2019-04-23T03:56:14.544Z,11.00
2019-04-23T03:58:38.680Z,11.00
2019-04-23T04:01:06.858Z,11.00
2019-04-23T04:04:12.478Z,11.00
2019-04-23T04:06:05.271Z,10.90
2019-04-23T04:08:25.828Z,10.90
2019-04-23T04:16:02.630Z,10.80
2019-04-23T04:28:38.383Z,10.60
2019-04-23T04:30:54.268Z,10.70
2019-04-23T04:33:36.554Z,10.60
2019-04-23T04:36:10.242Z,10.60
2019-04-23T04:48:35.120Z,10.60
2019-04-23T04:51:22.674Z,10.60
2019-04-23T04:59:11.532Z,10.60
2019-04-23T05:01:25.960Z,10.60
2019-04-23T05:03:43.337Z,10.60
2019-04-23T05:06:39.102Z,10.60
2019-04-23T05:08:54.465Z,10.60
2019-04-23T05:13:54.875Z,10.60
2019-04-23T05:16:24.303Z,10.60
2019-04-23T05:21:38.715Z,10.60
2019-04-23T05:26:25.161Z,10.70
2019-04-23T05:29:01.959Z,10.70
2019-04-23T05:36:30.739Z,10.90
2019-04-23T05:41:42.030Z,11.10
2019-04-23T05:44:15.881Z,11.40
2019-04-23T05:49:12.704Z,11.80
2019-04-23T05:51:54.261Z,12.00
2019-04-23T05:56:56.976Z,12.30
2019-04-23T05:59:14.825Z,12.50
2019-04-23T06:17:09.351Z,13.50
2019-04-23T06:19:36.636Z,14.10
2019-04-23T06:24:34.321Z,14.50
2019-04-23T06:29:32.233Z,15.00
2019-04-23T06:31:58.780Z,15.20
2019-04-23T06:42:05.976Z,15.90
2019-04-23T06:44:52.047Z,16.40
2019-04-23T06:47:21.849Z,16.60
2019-04-23T06:54:56.506Z,17.50
2019-04-23T06:59:48.548Z,17.50
2019-04-23T07:02:34.398Z,17.60
2019-04-23T07:05:08.602Z,17.50
2019-04-23T07:07:39.537Z,17.40
2019-04-23T07:09:43.955Z,17.60
2019-04-23T07:12:15.371Z,17.90
2019-04-23T07:14:51.445Z,17.90
2019-04-23T07:17:25.178Z,18.10
2019-04-23T07:19:58.158Z,17.80
2019-04-23T07:22:45.639Z,17.90
2019-04-23T07:25:14.144Z,17.80
2019-04-23T07:27:33.311Z,18.00
2019-04-23T07:30:13.639Z,18.20
2019-04-23T07:32:35.885Z,18.20
2019-04-23T07:35:16.115Z,18.00
2019-04-23T07:37:43.178Z,18.10
2019-04-23T07:40:37.459Z,18.40
2019-04-23T07:43:21.433Z,18.80
2019-04-23T07:46:20.133Z,18.50
2019-04-23T07:48:37.024Z,18.70
2019-04-23T07:51:14.185Z,19.20
2019-04-23T07:53:48.264Z,19.60
2019-04-23T07:58:33.878Z,20.40
2019-04-23T08:01:12.528Z,20.30
2019-04-23T08:03:48.469Z,20.30
2019-04-23T08:06:21.545Z,20.10
2019-04-23T08:08:57.541Z,20.40
2019-04-23T08:18:54.051Z,20.80
2019-04-23T08:24:11.980Z,20.90
2019-04-23T08:29:30.501Z,20.60
2019-04-23T08:34:58.861Z,20.40
2019-04-23T08:37:15.012Z,20.30
2019-04-23T08:39:43.465Z,20.50
2019-04-23T08:42:32.847Z,20.40
2019-04-23T08:48:20.964Z,20.50
2019-04-23T08:50:49.064Z,20.60
2019-04-23T08:53:37.674Z,20.30
2019-04-23T08:56:00.373Z,20.40
2019-04-23T09:03:25.360Z,20.40
2019-04-23T09:08:27.839Z,20.70
2019-04-23T09:11:04.650Z,20.90
2019-04-23T09:18:21.238Z,21.90
2019-04-23T09:21:00.405Z,22.00
2019-04-23T09:23:30.972Z,22.10
2019-04-23T09:25:54.391Z,22.20
2019-04-23T09:28:36.534Z,22.60
2019-04-23T09:31:09.039Z,23.10
2019-04-23T09:34:03.892Z,23.50
2019-04-23T09:36:27.449Z,23.60
2019-04-23T09:39:00.197Z,23.60
2019-04-23T09:41:39.933Z,23.60
2019-04-23T09:47:09.910Z,24.70
2019-04-23T09:49:33.177Z,24.60
2019-04-23T09:52:07.995Z,25.10
2019-04-23T09:54:32.549Z,25.70
2019-04-23T09:57:10.863Z,26.00
2019-04-23T09:59:34.343Z,26.20
2019-04-23T10:01:49.832Z,26.40
2019-04-23T10:04:17.056Z,26.30
2019-04-23T10:06:34.562Z,26.10
2019-04-23T10:09:02.645Z,26.20
2019-04-23T10:11:30.553Z,26.40
2019-04-23T10:13:58.864Z,26.50
2019-04-23T10:16:30.258Z,27.20
2019-04-23T10:19:01.017Z,27.70
2019-04-23T10:21:29.277Z,27.70
2019-04-23T10:23:57.173Z,27.90
2019-04-23T10:26:28.425Z,27.90
2019-04-23T10:29:02.331Z,27.90
2019-04-23T10:31:31.331Z,27.60
2019-04-23T10:34:00.106Z,26.90
2019-04-23T10:36:30.073Z,26.60
2019-04-23T10:39:03.556Z,26.80
2019-04-23T10:41:33.142Z,26.80
2019-04-23T10:44:12.956Z,27.10
2019-04-23T10:47:45.335Z,27.20
2019-04-23T10:50:40.340Z,26.90
2019-04-23T10:53:20.184Z,26.70
2019-04-23T10:55:41.064Z,27.00
2019-04-23T10:58:08.315Z,26.90
2019-04-23T11:00:40.584Z,26.50
2019-04-23T11:03:21.669Z,26.30
2019-04-23T11:05:47.489Z,26.20
2019-04-23T11:08:02.310Z,26.10
2019-04-23T11:10:41.044Z,25.80
2019-04-23T11:13:25.629Z,25.90
2019-04-23T11:15:55.727Z,26.10
2019-04-23T11:18:17.355Z,26.20
2019-04-23T11:20:48.015Z,26.60
2019-04-23T11:23:17.542Z,26.20
2019-04-23T11:25:42.796Z,25.70
2019-04-23T11:28:20.749Z,25.60
2019-04-23T11:30:45.392Z,25.90
2019-04-23T11:33:18.607Z,25.70
2019-04-23T11:40:49.040Z,26.20
2019-04-23T11:45:53.831Z,26.00
2019-04-23T11:53:26.022Z,25.60
2019-04-23T11:58:20.447Z,25.40
2019-04-23T12:01:10.841Z,25.30
2019-04-23T12:03:46.788Z,25.40
2019-04-23T12:06:50.868Z,25.20
2019-04-23T12:09:16.105Z,25.10
2019-04-23T12:17:28.219Z,25.30
2019-04-23T12:22:18.047Z,25.50
2019-04-23T12:27:18.615Z,25.80
2019-04-23T12:29:44.041Z,26.10
2019-04-23T12:35:17.017Z,26.00
2019-04-23T12:40:15.377Z,25.80
2019-04-23T12:42:54.013Z,26.00
2019-04-23T12:47:53.511Z,26.00
2019-04-23T12:52:47.807Z,25.70
2019-04-23T12:55:13.637Z,25.60
2019-04-23T13:00:09.891Z,25.70
2019-04-23T13:02:44.355Z,26.00
2019-04-23T13:05:21.634Z,26.10
2019-04-23T13:07:38.845Z,25.70
2019-04-23T13:10:11.984Z,25.80
2019-04-23T13:12:43.030Z,25.90
2019-04-23T13:15:11.380Z,26.00
2019-04-23T13:17:48.948Z,26.20
2019-04-23T13:20:07.579Z,26.00
2019-04-23T13:22:48.952Z,25.80
2019-04-23T13:25:41.942Z,25.80
2019-04-23T13:33:21.090Z,25.30
2019-04-23T13:35:45.590Z,25.30
2019-04-23T13:38:28.757Z,25.10
2019-04-23T13:40:39.503Z,25.20
2019-04-23T13:43:30.318Z,24.80
2019-04-23T14:01:07.457Z,25.00
2019-04-23T14:03:39.634Z,25.00
2019-04-23T14:06:18.052Z,24.90
2019-04-23T14:11:10.736Z,24.80
2019-04-23T14:16:13.495Z,25.00
2019-04-23T14:21:17.158Z,24.90
2019-04-23T14:23:52.662Z,24.70
2019-04-23T14:26:15.904Z,24.70
2019-04-23T14:28:41.703Z,24.80
2019-04-23T14:36:07.723Z,24.60
2019-04-23T14:38:41.688Z,24.40
2019-04-23T14:41:12.483Z,24.60
2019-04-23T14:43:38.777Z,24.40
2019-04-23T14:46:34.859Z,24.40
2019-04-23T14:48:51.885Z,24.40
2019-04-23T14:58:56.924Z,24.10
2019-04-23T15:03:46.583Z,24.10
2019-04-23T15:06:33.229Z,24.10
2019-04-23T15:13:49.946Z,24.20
2019-04-23T15:19:22.040Z,24.20
2019-04-23T15:24:22.992Z,24.10
2019-04-23T15:28:54.494Z,24.20
2019-04-23T15:31:52.263Z,24.20
2019-04-23T15:34:13.778Z,24.10
2019-04-23T15:44:19.275Z,23.80
2019-04-23T15:47:05.308Z,23.70
2019-04-23T15:49:28.791Z,23.60
2019-04-23T15:52:03.917Z,23.60
2019-04-23T15:57:12.140Z,23.60
2019-04-23T16:01:43.227Z,23.60
2019-04-23T16:04:08.807Z,23.60
2019-04-23T16:06:38.546Z,23.40
2019-04-23T16:09:21.092Z,23.60
2019-04-23T16:11:59.004Z,23.60
2019-04-23T16:14:46.097Z,23.50
2019-04-23T16:17:13.793Z,23.60
2019-04-23T16:22:30.438Z,23.60
2019-04-23T16:25:08.062Z,23.40
2019-04-23T16:27:31.227Z,23.30
2019-04-23T16:33:06.924Z,23.30
2019-04-23T16:35:39.919Z,23.30
2019-04-23T16:38:14.124Z,23.30
2019-04-23T16:40:31.592Z,23.20
2019-04-23T16:43:00.841Z,23.20
2019-04-23T16:45:23.941Z,23.20
2019-04-23T16:47:56.703Z,23.20
2019-04-23T16:50:31.006Z,23.10
2019-04-23T16:53:05.193Z,22.90
2019-04-23T16:55:24.193Z,22.90
2019-04-23T17:03:09.328Z,22.70
2019-04-23T17:05:24.979Z,22.80
2019-04-23T17:08:24.864Z,22.90
2019-04-23T17:12:54.795Z,22.90
2019-04-23T17:15:26.006Z,22.90
2019-04-23T17:17:46.913Z,22.90
2019-04-23T17:20:23.807Z,22.70
2019-04-23T17:22:56.352Z,22.80
2019-04-23T17:25:17.635Z,22.70
2019-04-23T17:27:59.042Z,22.60
2019-04-23T17:30:20.313Z,22.60
2019-04-23T17:33:13.396Z,22.50
2019-04-23T17:36:15.060Z,22.50
2019-04-23T17:38:42.379Z,22.40
2019-04-23T17:43:51.008Z,22.20
2019-04-23T17:46:14.346Z,22.30
2019-04-23T17:48:53.132Z,22.20
2019-04-23T17:51:16.555Z,22.20
2019-04-23T17:53:56.200Z,22.10
2019-04-23T17:58:52.258Z,21.90
2019-04-23T18:01:20.149Z,21.90
2019-04-23T18:06:28.314Z,21.80
2019-04-23T18:11:31.301Z,21.60
2019-04-23T18:16:27.621Z,21.40
2019-04-23T18:21:47.659Z,21.20
2019-04-23T18:24:27.585Z,21.10
2019-04-23T18:29:41.752Z,21.00
2019-04-23T18:32:15.112Z,20.90
2019-04-23T18:34:53.684Z,20.80
2019-04-23T18:37:13.797Z,20.70
2019-04-23T18:39:42.114Z,20.60
2019-04-23T18:44:42.093Z,20.40
2019-04-23T18:47:07.576Z,20.30
2019-04-23T18:49:45.366Z,20.30
2019-04-23T18:52:05.135Z,20.20
2019-04-23T18:54:34.815Z,20.10
2019-04-23T18:57:10.025Z,20.10
2019-04-23T19:00:11.895Z,20.00
2019-04-23T19:02:51.780Z,20.00
2019-04-23T19:05:14.883Z,19.90
2019-04-23T19:13:07.059Z,19.60
2019-04-23T19:15:37.317Z,19.50
2019-04-23T19:18:00.425Z,19.40
2019-04-23T19:23:08.966Z,19.20
2019-04-23T19:25:30.458Z,19.10
2019-04-23T19:28:25.616Z,19.00
2019-04-23T19:30:56.956Z,18.90
2019-04-23T19:33:29.115Z,18.80
2019-04-23T19:36:03.623Z,18.80
2019-04-23T19:38:29.221Z,18.60
2019-04-23T19:43:28.145Z,18.50
2019-04-23T19:46:03.935Z,18.50
2019-04-23T19:48:25.415Z,18.40
2019-04-23T19:50:55.485Z,18.30
2019-04-23T19:53:32.193Z,18.30
2019-04-23T19:56:04.473Z,18.20
2019-04-23T19:58:34.735Z,18.20
2019-04-23T20:05:53.899Z,18.00
2019-04-23T20:08:33.978Z,18.00
2019-04-23T20:11:09.180Z,17.90
2019-04-23T20:13:35.273Z,17.90
2019-04-23T20:16:07.047Z,17.80
2019-04-23T20:18:33.556Z,17.70
2019-04-23T20:20:54.300Z,17.70
2019-04-23T20:23:40.405Z,17.70
2019-04-23T20:26:13.556Z,17.60
2019-04-23T20:32:27.964Z,17.50
2019-04-23T20:34:14.144Z,17.50
2019-04-23T20:36:38.564Z,17.40
2019-04-23T20:39:12.177Z,17.40
2019-04-23T20:42:07.841Z,17.30
2019-04-23T20:44:21.674Z,17.30
2019-04-23T20:46:56.359Z,17.30
2019-04-23T20:49:16.611Z,17.30
2019-04-23T20:51:58.196Z,17.20
2019-04-23T20:54:19.537Z,17.20
2019-04-23T20:56:52.347Z,17.10
2019-04-23T20:59:30.174Z,17.10
2019-04-23T21:02:06.004Z,17.00
2019-04-23T21:04:28.161Z,17.00
2019-04-23T21:07:05.493Z,17.00
2019-04-23T21:09:48.946Z,17.00
2019-04-23T21:12:04.209Z,16.90
2019-04-23T21:14:39.266Z,16.90
2019-04-23T21:16:56.629Z,16.90
2019-04-23T21:19:30.409Z,16.80
2019-04-23T21:22:02.560Z,16.80
2019-04-23T21:24:35.060Z,16.70
2019-04-23T21:27:43.121Z,16.70
2019-04-23T21:30:09.123Z,16.70
2019-04-23T21:32:41.056Z,16.70
2019-04-23T21:35:21.971Z,16.60
2019-04-23T21:37:54.138Z,16.50
2019-04-23T21:43:47.927Z,16.50
2019-04-23T21:46:13.347Z,16.40
2019-04-23T21:48:53.082Z,16.40
2019-04-23T21:51:11.344Z,16.40
2019-04-23T21:53:42.673Z,16.40
2019-04-23T21:56:09.058Z,16.30
2019-04-23T21:58:47.633Z,16.30
2019-04-23T22:04:05.112Z,16.30
2019-04-23T22:06:25.511Z,16.20
2019-04-23T22:08:52.961Z,16.20
2019-04-23T22:11:32.742Z,16.10
2019-04-23T22:14:04.952Z,16.10
2019-04-23T22:16:16.909Z,16.10
2019-04-23T22:18:57.187Z,16.10
2019-04-23T22:21:20.791Z,16.00
2019-04-23T22:23:57.661Z,16.00
2019-04-23T22:26:22.092Z,16.00
2019-04-23T22:36:35.386Z,15.80
2019-04-23T22:39:03.160Z,15.80
2019-04-23T22:41:37.186Z,15.80
2019-04-23T22:44:07.262Z,15.70
2019-04-23T22:46:51.033Z,15.70
2019-04-23T22:49:14.232Z,15.70
2019-04-23T22:51:43.759Z,15.70
2019-04-23T22:54:03.742Z,15.60
2019-04-23T22:56:45.023Z,15.60
2019-04-23T23:04:13.370Z,15.50
2019-04-23T23:06:48.575Z,15.70
2019-04-23T23:09:23.208Z,15.50
2019-04-23T23:11:42.874Z,15.50
2019-04-23T23:14:18.864Z,15.50
2019-04-23T23:19:19.363Z,15.40
2019-04-23T23:21:54.537Z,15.40
2019-04-23T23:24:06.146Z,15.40
2019-04-23T23:26:42.871Z,15.30
2019-04-23T23:29:05.841Z,15.30
2019-04-23T23:31:38.088Z,15.20
2019-04-23T23:34:09.991Z,15.20
2019-04-23T23:39:18.115Z,15.20
2019-04-23T23:41:43.082Z,15.10
2019-04-23T23:44:29.780Z,15.10
2019-04-23T23:49:13.824Z,15.10
2019-04-23T23:54:08.446Z,15.00
2019-04-23T23:56:38.831Z,15.00
2019-04-23T23:59:10.380Z,14.90
